Terminal Aerodrome Forecast
Issued by NWS

Home | Current Version | Previous Version | Graphics & Text | Print | Product List | Glossary On
Versions: 1 2 3 4 5 6 7 8 9 10 11 12 13 14 15 16 17 18
000
FTUS43 KGRB 282300
TAFRHI
TAF
KRHI 282331Z 2900/2924 25010G17KT P6SM -SHRA BKN025 OVC040
     FM290600 27009G15KT P6SM VCSH BKN015 OVC030
      TEMPO 2906/2910 6SM -SHRASN
     FM291200 29008KT P6SM BKN020 OVC035
     FM292200 29004KT P6SM SCT020 BKN035=

USA.gov is the U.S. government's official web portal to all federal, state and local government web resources and services.